sensor_id;sensor_type;location;lat;lon;timestamp;pressure;altitude;pressure_sealevel;temperature;humidity
75617;BME280;64200;55.426;37.758;2022-11-15T00:00:13;99924.75;;;1.48;42.39
75617;BME280;64200;55.426;37.758;2022-11-15T00:05:13;99921.63;;;1.43;41.80
75617;BME280;64200;55.426;37.758;2022-11-15T00:10:14;99909.09;;;1.38;42.06
75617;BME280;64200;55.426;37.758;2022-11-15T00:15:15;99899.69;;;1.32;42.39
75617;BME280;64200;55.426;37.758;2022-11-15T00:20:17;99904.00;;;1.22;42.93
75617;BME280;64200;55.426;37.758;2022-11-15T00:25:17;99911.88;;;1.20;42.75
75617;BME280;64200;55.426;37.758;2022-11-15T00:30:18;99904.03;;;1.15;43.16
75617;BME280;64200;55.426;37.758;2022-11-15T00:35:19;99900.09;;;1.16;43.88
75617;BME280;64200;55.426;37.758;2022-11-15T00:40:19;99898.91;;;1.17;43.56
75617;BME280;64200;55.426;37.758;2022-11-15T00:45:20;99898.94;;;1.13;43.78
75617;BME280;64200;55.426;37.758;2022-11-15T00:50:21;99878.91;;;1.02;44.28
75617;BME280;64200;55.426;37.758;2022-11-15T00:55:21;99886.75;;;1.03;43.93
75617;BME280;64200;55.426;37.758;2022-11-15T01:00:22;99872.63;;;1.05;44.38
75617;BME280;64200;55.426;37.758;2022-11-15T01:05:23;99857.72;;;1.10;44.16
75617;BME280;64200;55.426;37.758;2022-11-15T01:10:24;99871.44;;;1.13;44.50
75617;BME280;64200;55.426;37.758;2022-11-15T01:15:26;99860.47;;;1.13;44.79
75617;BME280;64200;55.426;37.758;2022-11-15T01:20:26;99862.03;;;1.11;44.42
75617;BME280;64200;55.426;37.758;2022-11-15T01:25:27;99860.47;;;1.06;44.53
75617;BME280;64200;55.426;37.758;2022-11-15T01:30:27;99864.03;;;0.99;44.87
75617;BME280;64200;55.426;37.758;2022-11-15T01:35:28;99853.44;;;0.87;44.57
75617;BME280;64200;55.426;37.758;2022-11-15T01:40:29;99847.94;;;0.94;45.80
75617;BME280;64200;55.426;37.758;2022-11-15T01:45:29;99842.06;;;0.88;45.18
75617;BME280;64200;55.426;37.758;2022-11-15T01:50:32;99827.94;;;0.83;45.19
75617;BME280;64200;55.426;37.758;2022-11-15T01:55:33;99835.00;;;0.77;46.08
75617;BME280;64200;55.426;37.758;2022-11-15T02:00:34;99836.22;;;0.68;46.62
75617;BME280;64200;55.426;37.758;2022-11-15T02:05:36;99849.94;;;0.68;46.84
75617;BME280;64200;55.426;37.758;2022-11-15T02:10:37;99844.84;;;0.63;46.52
75617;BME280;64200;55.426;37.758;2022-11-15T02:15:46;99836.59;;;0.63;46.27
75617;BME280;64200;55.426;37.758;2022-11-15T02:42:33;99804.06;;;0.44;46.46
75617;BME280;64200;55.426;37.758;2022-11-15T02:47:56;99799.75;;;0.35;46.91
75617;BME280;64200;55.426;37.758;2022-11-15T02:52:59;99804.47;;;0.31;47.07
75617;BME280;64200;55.426;37.758;2022-11-15T02:58:23;99817.78;;;0.29;47.17
75617;BME280;64200;55.426;37.758;2022-11-15T03:03:53;99806.03;;;0.29;47.79
75617;BME280;64200;55.426;37.758;2022-11-15T03:09:13;99800.94;;;0.31;47.65
75617;BME280;64200;55.426;37.758;2022-11-15T03:14:24;99803.31;;;0.29;47.78
75617;BME280;64200;55.426;37.758;2022-11-15T03:19:45;99804.06;;;0.22;47.62
75617;BME280;64200;55.426;37.758;2022-11-15T03:24:51;99791.53;;;0.14;47.42
75617;BME280;64200;55.426;37.758;2022-11-15T03:29:57;99794.69;;;0.12;48.13
75617;BME280;64200;55.426;37.758;2022-11-15T03:40:04;99788.00;;;0.03;48.54
75617;BME280;64200;55.426;37.758;2022-11-15T03:45:19;99782.91;;;-0.03;48.96
75617;BME280;64200;55.426;37.758;2022-11-15T03:50:23;99785.25;;;-0.12;49.58
75617;BME280;64200;55.426;37.758;2022-11-15T03:55:24;99781.72;;;-0.16;48.86
75617;BME280;64200;55.426;37.758;2022-11-15T04:00:26;99792.72;;;0.02;48.93
75617;BME280;64200;55.426;37.758;2022-11-15T04:05:26;99789.16;;;0.09;48.86
75617;BME280;64200;55.426;37.758;2022-11-15T04:10:27;99792.72;;;0.13;49.11
75617;BME280;64200;55.426;37.758;2022-11-15T04:15:27;99787.22;;;0.02;48.49
75617;BME280;64200;55.426;37.758;2022-11-15T04:20:44;99788.00;;;-0.05;48.41
75617;BME280;64200;55.426;37.758;2022-11-15T04:26:15;99786.44;;;0.05;48.16
75617;BME280;64200;55.426;37.758;2022-11-15T04:31:16;99782.91;;;0.15;49.00
75617;BME280;64200;55.426;37.758;2022-11-15T04:36:35;99784.47;;;0.13;48.88
75617;BME280;64200;55.426;37.758;2022-11-15T04:42:13;99781.34;;;0.04;47.83
75617;BME280;64200;55.426;37.758;2022-11-15T04:47:32;99775.47;;;0.05;47.84
75617;BME280;64200;55.426;37.758;2022-11-15T04:52:33;99763.72;;;0.08;47.08
75617;BME280;64200;55.426;37.758;2022-11-15T04:57:33;99758.63;;;0.14;47.79
75617;BME280;64200;55.426;37.758;2022-11-15T05:02:34;99760.19;;;0.19;47.78
75617;BME280;64200;55.426;37.758;2022-11-15T05:07:53;99753.53;;;0.12;47.11
75617;BME280;64200;55.426;37.758;2022-11-15T05:12:54;99750.78;;;0.09;47.64
75617;BME280;64200;55.426;37.758;2022-11-15T05:17:58;99758.22;;;0.12;47.18
75617;BME280;64200;55.426;37.758;2022-11-15T05:22:59;99751.97;;;0.19;47.67
75617;BME280;64200;55.426;37.758;2022-11-15T05:28:00;99752.72;;;0.12;47.72
75617;BME280;64200;55.426;37.758;2022-11-15T05:33:01;99747.63;;;0.17;47.48
75617;BME280;64200;55.426;37.758;2022-11-15T05:38:02;99757.06;;;0.20;46.62
75617;BME280;64200;55.426;37.758;2022-11-15T05:43:03;99753.16;;;0.21;47.21
75617;BME280;64200;55.426;37.758;2022-11-15T05:48:07;99755.47;;;0.19;46.07
75617;BME280;64200;55.426;37.758;2022-11-15T05:53:10;99747.25;;;0.08;46.34
75617;BME280;64200;55.426;37.758;2022-11-15T05:58:13;99725.72;;;0.14;47.28
75617;BME280;64200;55.426;37.758;2022-11-15T06:03:13;99729.63;;;0.20;46.52
75617;BME280;64200;55.426;37.758;2022-11-15T06:08:14;99721.38;;;0.34;46.68
75617;BME280;64200;55.426;37.758;2022-11-15T06:13:15;99726.84;;;0.49;46.58
75617;BME280;64200;55.426;37.758;2022-11-15T06:18:15;99726.00;;;0.66;46.33
75617;BME280;64200;55.426;37.758;2022-11-15T06:23:16;99713.06;;;0.67;45.87
75617;BME280;64200;55.426;37.758;2022-11-15T06:28:17;99709.94;;;0.61;45.86
75617;BME280;64200;55.426;37.758;2022-11-15T06:33:17;99721.69;;;0.62;46.14
75617;BME280;64200;55.426;37.758;2022-11-15T06:38:19;99722.91;;;0.57;45.39
75617;BME280;64200;55.426;37.758;2022-11-15T06:43:20;99705.22;;;0.62;45.93
75617;BME280;64200;55.426;37.758;2022-11-15T06:48:21;99711.91;;;0.64;45.82
75617;BME280;64200;55.426;37.758;2022-11-15T06:53:22;99707.19;;;0.68;46.22
75617;BME280;64200;55.426;37.758;2022-11-15T06:58:22;99708.38;;;0.64;45.93
75617;BME280;64200;55.426;37.758;2022-11-15T07:03:23;99706.84;;;0.52;46.56
75617;BME280;64200;55.426;37.758;2022-11-15T07:08:24;99699.41;;;0.38;46.51
75617;BME280;64200;55.426;37.758;2022-11-15T07:13:28;99692.34;;;0.41;46.67
75617;BME280;64200;55.426;37.758;2022-11-15T07:18:30;99691.53;;;0.58;46.02
75617;BME280;64200;55.426;37.758;2022-11-15T07:23:31;99687.16;;;0.75;46.65
75617;BME280;64200;55.426;37.758;2022-11-15T07:28:31;99686.28;;;0.93;45.76
75617;BME280;64200;55.426;37.758;2022-11-15T07:33:32;99682.31;;;1.04;45.55
75617;BME280;64200;55.426;37.758;2022-11-15T07:38:34;99661.56;;;1.00;45.20
75617;BME280;64200;55.426;37.758;2022-11-15T07:43:35;99670.09;;;1.16;45.30
75617;BME280;64200;55.426;37.758;2022-11-15T07:48:37;99672.09;;;1.09;45.57
75617;BME280;64200;55.426;37.758;2022-11-15T07:53:41;99651.34;;;1.04;45.61
75617;BME280;64200;55.426;37.758;2022-11-15T07:58:42;99643.09;;;1.04;46.31
75617;BME280;64200;55.426;37.758;2022-11-15T08:03:42;99646.53;;;1.15;45.79
75617;BME280;64200;55.426;37.758;2022-11-15T08:08:43;99641.47;;;1.10;46.18
75617;BME280;64200;55.426;37.758;2022-11-15T08:13:44;99626.53;;;1.15;44.69
75617;BME280;64200;55.426;37.758;2022-11-15T08:18:45;99629.31;;;1.08;45.55
75617;BME280;64200;55.426;37.758;2022-11-15T08:23:46;99621.00;;;1.18;45.72
75617;BME280;64200;55.426;37.758;2022-11-15T08:28:47;99613.53;;;1.26;44.88
75617;BME280;64200;55.426;37.758;2022-11-15T08:33:47;99608.06;;;1.15;45.32
75617;BME280;64200;55.426;37.758;2022-11-15T08:38:48;99606.53;;;1.14;45.51
75617;BME280;64200;55.426;37.758;2022-11-15T08:43:49;99603.38;;;1.16;45.80
75617;BME280;64200;55.426;37.758;2022-11-15T08:48:49;99601.25;;;1.38;45.17
75617;BME280;64200;55.426;37.758;2022-11-15T08:53:50;99596.69;;;1.20;45.31
75617;BME280;64200;55.426;37.758;2022-11-15T08:58:51;99594.44;;;1.01;46.01
75617;BME280;64200;55.426;37.758;2022-11-15T09:03:54;99586.94;;;1.05;46.09
75617;BME280;64200;55.426;37.758;2022-11-15T09:08:55;99586.53;;;1.10;45.41
75617;BME280;64200;55.426;37.758;2022-11-15T09:13:56;99589.00;;;0.94;45.84
75617;BME280;64200;55.426;37.758;2022-11-15T09:18:56;99583.94;;;0.85;45.76
75617;BME280;64200;55.426;37.758;2022-11-15T09:23:57;99572.94;;;0.88;46.67
75617;BME280;64200;55.426;37.758;2022-11-15T09:28:58;99574.03;;;1.02;46.38
75617;BME280;64200;55.426;37.758;2022-11-15T09:33:59;99560.31;;;0.98;46.11
75617;BME280;64200;55.426;37.758;2022-11-15T09:38:59;99565.44;;;0.96;46.37
75617;BME280;64200;55.426;37.758;2022-11-15T09:49:19;99546.38;;;0.67;46.87
75617;BME280;64200;55.426;37.758;2022-11-15T09:54:35;99530.72;;;0.64;47.22
75617;BME280;64200;55.426;37.758;2022-11-15T10:04:42;99537.72;;;0.76;47.07
75617;BME280;64200;55.426;37.758;2022-11-15T10:10:12;99533.41;;;0.75;47.27
75617;BME280;64200;55.426;37.758;2022-11-15T10:15:17;99525.63;;;0.59;47.66
75617;BME280;64200;55.426;37.758;2022-11-15T10:20:27;99510.63;;;0.78;47.75
75617;BME280;64200;55.426;37.758;2022-11-15T10:25:33;99513.22;;;1.00;47.26
75617;BME280;64200;55.426;37.758;2022-11-15T10:30:40;99502.97;;;1.08;46.44
75617;BME280;64200;55.426;37.758;2022-11-15T10:35:41;99491.31;;;0.96;46.58
75617;BME280;64200;55.426;37.758;2022-11-15T10:40:42;99492.47;;;0.95;47.00
75617;BME280;64200;55.426;37.758;2022-11-15T10:45:46;99481.84;;;0.97;46.83
75617;BME280;64200;55.426;37.758;2022-11-15T10:50:47;99479.88;;;1.01;46.28
75617;BME280;64200;55.426;37.758;2022-11-15T10:55:51;99473.84;;;0.68;46.67
75617;BME280;64200;55.426;37.758;2022-11-15T11:00:53;99462.50;;;0.63;47.23
75617;BME280;64200;55.426;37.758;2022-11-15T11:06:16;99442.53;;;0.59;47.43
75617;BME280;64200;55.426;37.758;2022-11-15T11:11:18;99443.91;;;0.81;47.61
75617;BME280;64200;55.426;37.758;2022-11-15T11:16:51;99444.09;;;0.60;47.74
75617;BME280;64200;55.426;37.758;2022-11-15T11:22:09;99425.25;;;0.62;48.27
75617;BME280;64200;55.426;37.758;2022-11-15T11:38:38;99426.91;;;0.48;48.63
75617;BME280;64200;55.426;37.758;2022-11-15T11:49:08;99429.63;;;0.56;48.06
75617;BME280;64200;55.426;37.758;2022-11-15T11:59:53;99424.25;;;0.38;48.64
75617;BME280;64200;55.426;37.758;2022-11-15T12:05:20;99427.06;;;0.27;50.90
75617;BME280;64200;55.426;37.758;2022-11-15T12:10:33;99415.88;;;-0.04;51.32
75617;BME280;64200;55.426;37.758;2022-11-15T12:15:56;99389.72;;;-0.23;53.13
75617;BME280;64200;55.426;37.758;2022-11-15T12:21:13;99405.75;;;-0.18;53.22
75617;BME280;64200;55.426;37.758;2022-11-15T12:26:45;99398.00;;;-0.34;55.45
75617;BME280;64200;55.426;37.758;2022-11-15T12:31:50;99389.38;;;-0.36;55.96
75617;BME280;64200;55.426;37.758;2022-11-15T12:36:52;99395.22;;;-0.23;55.60
75617;BME280;64200;55.426;37.758;2022-11-15T13:17:50;99339.00;;;-0.64;61.58
75617;BME280;64200;55.426;37.758;2022-11-15T13:22:59;99326.91;;;-0.74;61.77
75617;BME280;64200;55.426;37.758;2022-11-15T13:28:21;99324.63;;;-0.90;64.06
75617;BME280;64200;55.426;37.758;2022-11-15T13:33:37;99316.44;;;-0.97;64.27
75617;BME280;64200;55.426;37.758;2022-11-15T13:38:40;99312.13;;;-1.01;64.64
75617;BME280;64200;55.426;37.758;2022-11-15T13:43:40;99308.25;;;-1.08;64.29
75617;BME280;64200;55.426;37.758;2022-11-15T13:48:42;99299.69;;;-1.28;65.14
75617;BME280;64200;55.426;37.758;2022-11-15T13:53:46;99294.25;;;-1.42;67.33
75617;BME280;64200;55.426;37.758;2022-11-15T13:58:49;99292.25;;;-1.31;66.48
75617;BME280;64200;55.426;37.758;2022-11-15T14:03:56;99278.19;;;-1.29;66.30
75617;BME280;64200;55.426;37.758;2022-11-15T14:24:32;99270.44;;;-1.60;68.36
75617;BME280;64200;55.426;37.758;2022-11-15T14:29:32;99268.88;;;-1.61;70.00
75617;BME280;64200;55.426;37.758;2022-11-15T14:34:33;99255.97;;;-1.64;70.28
75617;BME280;64200;55.426;37.758;2022-11-15T14:39:34;99247.38;;;-1.48;69.58
75617;BME280;64200;55.426;37.758;2022-11-15T14:44:34;99242.28;;;-1.53;71.07
75617;BME280;64200;55.426;37.758;2022-11-15T14:49:35;99233.28;;;-1.50;69.90
75617;BME280;64200;55.426;37.758;2022-11-15T14:54:35;99220.78;;;-1.54;70.38
75617;BME280;64200;55.426;37.758;2022-11-15T14:59:36;99220.41;;;-1.56;70.41
75617;BME280;64200;55.426;37.758;2022-11-15T15:04:37;99211.44;;;-1.53;70.46
75617;BME280;64200;55.426;37.758;2022-11-15T15:09:37;99212.56;;;-1.47;69.56
75617;BME280;64200;55.426;37.758;2022-11-15T15:14:38;99207.06;;;-1.33;68.95
75617;BME280;64200;55.426;37.758;2022-11-15T15:19:39;99205.06;;;-1.21;69.59
75617;BME280;64200;55.426;37.758;2022-11-15T15:24:39;99203.53;;;-1.30;69.12
75617;BME280;64200;55.426;37.758;2022-11-15T15:29:40;99209.41;;;-1.35;70.09
75617;BME280;64200;55.426;37.758;2022-11-15T15:34:41;99193.84;;;-1.63;70.94
75617;BME280;64200;55.426;37.758;2022-11-15T15:39:42;99186.03;;;-1.50;70.39
75617;BME280;64200;55.426;37.758;2022-11-15T15:44:42;99177.78;;;-1.43;71.22
75617;BME280;64200;55.426;37.758;2022-11-15T15:49:43;99166.44;;;-1.34;70.87
75617;BME280;64200;55.426;37.758;2022-11-15T15:54:43;99164.41;;;-1.19;71.27
75617;BME280;64200;55.426;37.758;2022-11-15T15:59:44;99151.53;;;-1.22;71.06
75617;BME280;64200;55.426;37.758;2022-11-15T16:04:45;99146.44;;;-1.20;69.74
75617;BME280;64200;55.426;37.758;2022-11-15T16:09:47;99133.91;;;-1.18;70.47
75617;BME280;64200;55.426;37.758;2022-11-15T16:15:03;99131.59;;;-1.27;71.07
75617;BME280;64200;55.426;37.758;2022-11-15T16:20:05;99121.81;;;-1.24;70.85
75617;BME280;64200;55.426;37.758;2022-11-15T16:25:05;99118.34;;;-1.35;71.42
75617;BME280;64200;55.426;37.758;2022-11-15T16:30:13;99114.84;;;-1.39;71.59
75617;BME280;64200;55.426;37.758;2022-11-15T16:35:15;99112.94;;;-1.46;71.75
75617;BME280;64200;55.426;37.758;2022-11-15T16:40:29;99114.84;;;-1.36;71.55
75617;BME280;64200;55.426;37.758;2022-11-15T16:45:33;99124.16;;;-1.26;72.57
75617;BME280;64200;55.426;37.758;2022-11-15T16:50:34;99110.84;;;-1.17;71.85
75617;BME280;64200;55.426;37.758;2022-11-15T16:55:41;99118.25;;;-1.14;71.66
75617;BME280;64200;55.426;37.758;2022-11-15T17:00:41;99107.75;;;-1.26;71.21
75617;BME280;64200;55.426;37.758;2022-11-15T17:05:42;99106.25;;;-1.34;71.82
75617;BME280;64200;55.426;37.758;2022-11-15T17:10:43;99112.06;;;-1.25;71.66
75617;BME280;64200;55.426;37.758;2022-11-15T17:15:43;99095.19;;;-1.20;71.27
75617;BME280;64200;55.426;37.758;2022-11-15T17:20:44;99096.75;;;-1.15;72.55
75617;BME280;64200;55.426;37.758;2022-11-15T17:25:44;99092.47;;;-1.16;72.24
75617;BME280;64200;55.426;37.758;2022-11-15T17:30:45;99090.53;;;-1.19;71.76
75617;BME280;64200;55.426;37.758;2022-11-15T17:35:46;99088.59;;;-1.26;72.93
75617;BME280;64200;55.426;37.758;2022-11-15T17:40:46;99085.41;;;-1.17;72.55
75617;BME280;64200;55.426;37.758;2022-11-15T17:45:47;99076.91;;;-1.30;72.73
75617;BME280;64200;55.426;37.758;2022-11-15T17:51:15;99071.38;;;-1.19;73.64
75617;BME280;64200;55.426;37.758;2022-11-15T17:56:19;99085.44;;;-1.25;72.46
75617;BME280;64200;55.426;37.758;2022-11-15T18:06:26;99077.66;;;-1.26;72.52
75617;BME280;64200;55.426;37.758;2022-11-15T18:11:32;99062.75;;;-1.21;72.57
75617;BME280;64200;55.426;37.758;2022-11-15T18:16:35;99055.34;;;-1.25;72.76
75617;BME280;64200;55.426;37.758;2022-11-15T18:21:36;99050.72;;;-1.31;73.67
75617;BME280;64200;55.426;37.758;2022-11-15T18:26:56;99041.81;;;-1.46;72.77
75617;BME280;64200;55.426;37.758;2022-11-15T18:31:57;99038.66;;;-1.41;74.20
75617;BME280;64200;55.426;37.758;2022-11-15T18:36:59;99042.19;;;-1.40;73.61
75617;BME280;64200;55.426;37.758;2022-11-15T18:42:00;99045.00;;;-1.55;73.97
75617;BME280;64200;55.426;37.758;2022-11-15T18:47:00;99048.44;;;-1.40;74.06
75617;BME280;64200;55.426;37.758;2022-11-15T18:52:01;99046.41;;;-1.32;73.63
75617;BME280;64200;55.426;37.758;2022-11-15T18:57:02;99051.94;;;-1.39;73.53
75617;BME280;64200;55.426;37.758;2022-11-15T19:02:03;99035.50;;;-1.36;73.60
75617;BME280;64200;55.426;37.758;2022-11-15T19:07:03;99042.19;;;-1.44;73.47
75617;BME280;64200;55.426;37.758;2022-11-15T19:12:04;99039.84;;;-1.42;73.74
75617;BME280;64200;55.426;37.758;2022-11-15T19:17:05;99032.41;;;-1.42;73.68
75617;BME280;64200;55.426;37.758;2022-11-15T19:22:05;99027.66;;;-1.34;74.20
75617;BME280;64200;55.426;37.758;2022-11-15T19:27:06;99011.31;;;-1.45;73.97
75617;BME280;64200;55.426;37.758;2022-11-15T19:32:07;99018.38;;;-1.47;74.46
75617;BME280;64200;55.426;37.758;2022-11-15T19:37:07;99007.44;;;-1.47;73.79
75617;BME280;64200;55.426;37.758;2022-11-15T19:42:08;99009.38;;;-1.44;74.07
75617;BME280;64200;55.426;37.758;2022-11-15T19:47:08;98995.38;;;-1.57;73.73
75617;BME280;64200;55.426;37.758;2022-11-15T19:52:09;99005.41;;;-1.39;73.21
75617;BME280;64200;55.426;37.758;2022-11-15T19:57:10;99001.16;;;-1.40;74.08
75617;BME280;64200;55.426;37.758;2022-11-15T20:02:11;99003.13;;;-1.45;73.57
75617;BME280;64200;55.426;37.758;2022-11-15T20:07:11;98991.38;;;-1.45;74.21
75617;BME280;64200;55.426;37.758;2022-11-15T20:12:12;98982.09;;;-1.55;73.74
75617;BME280;64200;55.426;37.758;2022-11-15T20:17:12;98975.13;;;-1.67;74.84
75617;BME280;64200;55.426;37.758;2022-11-15T20:22:13;98969.66;;;-1.67;75.00
75617;BME280;64200;55.426;37.758;2022-11-15T20:27:14;98971.19;;;-1.62;74.64
75617;BME280;64200;55.426;37.758;2022-11-15T20:32:14;98969.22;;;-1.58;74.52
75617;BME280;64200;55.426;37.758;2022-11-15T20:37:15;98973.03;;;-1.48;74.46
75617;BME280;64200;55.426;37.758;2022-11-15T20:42:16;98974.97;;;-1.42;74.38
75617;BME280;64200;55.426;37.758;2022-11-15T20:47:16;98978.06;;;-1.39;74.27
75617;BME280;64200;55.426;37.758;2022-11-15T20:52:17;98974.13;;;-1.35;73.72
75617;BME280;64200;55.426;37.758;2022-11-15T20:57:19;98973.81;;;-1.44;73.64
75617;BME280;64200;55.426;37.758;2022-11-15T21:02:19;98960.94;;;-1.47;73.78
75617;BME280;64200;55.426;37.758;2022-11-15T21:07:20;98957.44;;;-1.48;73.57
75617;BME280;64200;55.426;37.758;2022-11-15T21:12:21;98965.19;;;-1.43;73.97
75617;BME280;64200;55.426;37.758;2022-11-15T21:17:22;98959.03;;;-1.54;74.03
75617;BME280;64200;55.426;37.758;2022-11-15T21:22:23;98953.16;;;-1.56;73.56
75617;BME280;64200;55.426;37.758;2022-11-15T21:27:24;98958.25;;;-1.54;73.55
75617;BME280;64200;55.426;37.758;2022-11-15T21:32:25;98950.88;;;-1.65;73.49
75617;BME280;64200;55.426;37.758;2022-11-15T21:37:28;98957.16;;;-1.64;74.51
75617;BME280;64200;55.426;37.758;2022-11-15T21:42:28;98961.38;;;-1.56;74.03
75617;BME280;64200;55.426;37.758;2022-11-15T21:47:29;98963.25;;;-1.46;74.29
75617;BME280;64200;55.426;37.758;2022-11-15T21:52:30;98961.34;;;-1.49;74.00
75617;BME280;64200;55.426;37.758;2022-11-15T21:57:30;98960.22;;;-1.55;73.27
75617;BME280;64200;55.426;37.758;2022-11-15T22:02:31;98956.75;;;-1.66;73.96
75617;BME280;64200;55.426;37.758;2022-11-15T22:07:31;98952.09;;;-1.69;73.93
75617;BME280;64200;55.426;37.758;2022-11-15T22:12:32;98951.63;;;-1.61;74.02
75617;BME280;64200;55.426;37.758;2022-11-15T22:17:33;98956.34;;;-1.61;73.82
75617;BME280;64200;55.426;37.758;2022-11-15T22:22:52;98946.16;;;-1.61;74.12
75617;BME280;64200;55.426;37.758;2022-11-15T22:27:53;98956.25;;;-1.50;73.97
75617;BME280;64200;55.426;37.758;2022-11-15T22:32:53;98950.44;;;-1.56;73.13
75617;BME280;64200;55.426;37.758;2022-11-15T22:37:54;98949.28;;;-1.59;73.75
75617;BME280;64200;55.426;37.758;2022-11-15T22:42:55;98941.03;;;-1.51;73.59
75617;BME280;64200;55.426;37.758;2022-11-15T22:47:55;98951.50;;;-1.39;74.07
75617;BME280;64200;55.426;37.758;2022-11-15T22:52:56;98939.03;;;-1.47;73.45
75617;BME280;64200;55.426;37.758;2022-11-15T22:57:56;98941.47;;;-1.56;73.82
75617;BME280;64200;55.426;37.758;2022-11-15T23:02:57;98947.78;;;-1.67;74.04
75617;BME280;64200;55.426;37.758;2022-11-15T23:07:58;98952.84;;;-1.65;74.40
75617;BME280;64200;55.426;37.758;2022-11-15T23:13:07;98953.97;;;-1.59;74.42
75617;BME280;64200;55.426;37.758;2022-11-15T23:18:16;98943.88;;;-1.66;74.20
75617;BME280;64200;55.426;37.758;2022-11-15T23:23:17;98917.25;;;-1.62;74.35
75617;BME280;64200;55.426;37.758;2022-11-15T23:28:17;98935.09;;;-1.43;74.35
75617;BME280;64200;55.426;37.758;2022-11-15T23:33:18;98921.09;;;-1.52;73.60
75617;BME280;64200;55.426;37.758;2022-11-15T23:38:37;98924.78;;;-1.77;74.06
75617;BME280;64200;55.426;37.758;2022-11-15T23:43:38;98908.84;;;-1.89;74.86
75617;BME280;64200;55.426;37.758;2022-11-15T23:48:38;98914.25;;;-1.78;74.59
75617;BME280;64200;55.426;37.758;2022-11-15T23:53:39;98916.19;;;-1.75;74.39
75617;BME280;64200;55.426;37.758;2022-11-15T23:58:40;98917.03;;;-1.82;74.19
